sensor_id;sensor_type;location;lat;lon;timestamp;pressure;altitude;pressure_sealevel;temperature;humidity
33845;BME280;20145;43.118;25.694;2022-08-11T00:02:29;99642.59;;;21.88;61.80
33845;BME280;20145;43.118;25.694;2022-08-11T00:05:02;99641.38;;;21.78;62.12
33845;BME280;20145;43.118;25.694;2022-08-11T00:07:29;99640.88;;;21.71;62.64
33845;BME280;20145;43.118;25.694;2022-08-11T00:09:55;99642.94;;;21.82;62.20
33845;BME280;20145;43.118;25.694;2022-08-11T00:12:22;99627.69;;;21.73;62.05
33845;BME280;20145;43.118;25.694;2022-08-11T00:14:56;99637.94;;;21.77;62.53
33845;BME280;20145;43.118;25.694;2022-08-11T00:17:26;99636.00;;;21.81;61.75
33845;BME280;20145;43.118;25.694;2022-08-11T00:20:00;99628.78;;;21.69;62.56
33845;BME280;20145;43.118;25.694;2022-08-11T00:22:26;99627.66;;;21.57;62.72
33845;BME280;20145;43.118;25.694;2022-08-11T00:24:54;99625.69;;;21.45;63.60
33845;BME280;20145;43.118;25.694;2022-08-11T00:27:33;99611.13;;;21.22;64.20
33845;BME280;20145;43.118;25.694;2022-08-11T00:29:59;99616.47;;;21.20;64.61
33845;BME280;20145;43.118;25.694;2022-08-11T00:32:26;99612.81;;;21.23;63.99
33845;BME280;20145;43.118;25.694;2022-08-11T00:34:53;99620.56;;;21.08;63.86
33845;BME280;20145;43.118;25.694;2022-08-11T00:37:21;99606.06;;;20.84;64.78
33845;BME280;20145;43.118;25.694;2022-08-11T00:39:52;99597.84;;;20.74;66.07
33845;BME280;20145;43.118;25.694;2022-08-11T00:42:44;99634.84;;;21.03;65.29
33845;BME280;20145;43.118;25.694;2022-08-11T00:45:25;99631.03;;;20.92;65.48
33845;BME280;20145;43.118;25.694;2022-08-11T01:05:48;99628.00;;;21.33;62.96
33845;BME280;20145;43.118;25.694;2022-08-11T01:45:25;99617.16;;;21.57;61.69
33845;BME280;20145;43.118;25.694;2022-08-11T01:56:23;99606.63;;;21.41;62.04
33845;BME280;20145;43.118;25.694;2022-08-11T02:06:52;99612.41;;;21.30;62.96
33845;BME280;20145;43.118;25.694;2022-08-11T02:11:57;99617.22;;;21.40;63.05
33845;BME280;20145;43.118;25.694;2022-08-11T02:14:30;99612.50;;;21.29;63.78
33845;BME280;20145;43.118;25.694;2022-08-11T02:19:51;99615.66;;;21.35;63.78
33845;BME280;20145;43.118;25.694;2022-08-11T02:23:03;99619.75;;;21.41;62.69
33845;BME280;20145;43.118;25.694;2022-08-11T02:26:23;99617.66;;;21.48;62.52
33845;BME280;20145;43.118;25.694;2022-08-11T02:31:58;99618.94;;;21.56;63.10
33845;BME280;20145;43.118;25.694;2022-08-11T02:42:30;99614.53;;;21.24;61.52
33845;BME280;20145;43.118;25.694;2022-08-11T02:48:02;99616.28;;;20.90;62.50
33845;BME280;20145;43.118;25.694;2022-08-11T02:58:59;99607.16;;;20.97;63.81
33845;BME280;20145;43.118;25.694;2022-08-11T03:05:06;99598.13;;;21.03;63.25
33845;BME280;20145;43.118;25.694;2022-08-11T03:10:22;99598.16;;;21.19;62.96
33845;BME280;20145;43.118;25.694;2022-08-11T03:12:58;99595.72;;;21.15;63.25
33845;BME280;20145;43.118;25.694;2022-08-11T03:18:52;99589.91;;;21.09;63.17
33845;BME280;20145;43.118;25.694;2022-08-11T03:21:27;99601.63;;;21.19;63.80
33845;BME280;20145;43.118;25.694;2022-08-11T03:24:26;99599.16;;;21.16;62.79
33845;BME280;20145;43.118;25.694;2022-08-11T03:36:06;99606.09;;;21.34;63.23
33845;BME280;20145;43.118;25.694;2022-08-11T03:41:52;99594.78;;;21.50;62.21
33845;BME280;20145;43.118;25.694;2022-08-11T03:53:01;99606.22;;;22.12;61.66
33845;BME280;20145;43.118;25.694;2022-08-11T04:24:26;99608.22;;;22.69;58.46
33845;BME280;20145;43.118;25.694;2022-08-11T04:30:07;99621.00;;;22.75;58.67
33845;BME280;20145;43.118;25.694;2022-08-11T04:38:11;99608.81;;;23.04;59.45
33845;BME280;20145;43.118;25.694;2022-08-11T04:52:13;99616.81;;;23.31;57.83
33845;BME280;20145;43.118;25.694;2022-08-11T05:13:44;99616.13;;;24.12;55.44
33845;BME280;20145;43.118;25.694;2022-08-11T05:16:53;99623.16;;;24.26;54.88
33845;BME280;20145;43.118;25.694;2022-08-11T05:19:44;99617.94;;;24.39;55.01
33845;BME280;20145;43.118;25.694;2022-08-11T05:22:30;99612.28;;;24.58;53.92
33845;BME280;20145;43.118;25.694;2022-08-11T05:25:18;99611.91;;;25.02;53.12
33845;BME280;20145;43.118;25.694;2022-08-11T05:28:09;99617.88;;;25.31;51.22
33845;BME280;20145;43.118;25.694;2022-08-11T05:31:03;99597.16;;;25.25;50.72
33845;BME280;20145;43.118;25.694;2022-08-11T05:33:51;99612.22;;;24.85;52.99
33845;BME280;20145;43.118;25.694;2022-08-11T05:36:52;99597.84;;;24.51;53.44
33845;BME280;20145;43.118;25.694;2022-08-11T05:39:25;99568.19;;;23.93;53.20
33845;BME280;20145;43.118;25.694;2022-08-11T05:42:11;99608.31;;;24.11;54.02
33845;BME280;20145;43.118;25.694;2022-08-11T05:45:03;99591.72;;;24.23;53.78
33845;BME280;20145;43.118;25.694;2022-08-11T05:47:52;99596.72;;;24.40;53.75
33845;BME280;20145;43.118;25.694;2022-08-11T05:50:36;99590.59;;;24.13;53.94
33845;BME280;20145;43.118;25.694;2022-08-11T05:53:21;99591.06;;;24.19;53.64
33845;BME280;20145;43.118;25.694;2022-08-11T05:56:06;99602.47;;;24.33;53.83
33845;BME280;20145;43.118;25.694;2022-08-11T05:58:52;99581.50;;;24.04;53.52
33845;BME280;20145;43.118;25.694;2022-08-11T06:01:27;99601.16;;;24.13;54.41
33845;BME280;20145;43.118;25.694;2022-08-11T06:03:58;99606.53;;;23.84;54.60
33845;BME280;20145;43.118;25.694;2022-08-11T06:07:06;99600.53;;;24.22;53.72
33845;BME280;20145;43.118;25.694;2022-08-11T06:09:36;99597.97;;;24.35;53.55
33845;BME280;20145;43.118;25.694;2022-08-11T06:12:07;99598.72;;;24.64;52.86
33845;BME280;20145;43.118;25.694;2022-08-11T06:14:34;99606.53;;;24.78;54.07
33845;BME280;20145;43.118;25.694;2022-08-11T06:17:07;99604.00;;;25.02;52.50
33845;BME280;20145;43.118;25.694;2022-08-11T06:19:37;99608.53;;;25.13;51.32
33845;BME280;20145;43.118;25.694;2022-08-11T06:22:05;99585.59;;;25.13;51.70
33845;BME280;20145;43.118;25.694;2022-08-11T06:24:34;99567.78;;;24.79;51.45
33845;BME280;20145;43.118;25.694;2022-08-11T06:27:02;99574.44;;;25.23;51.34
33845;BME280;20145;43.118;25.694;2022-08-11T06:29:29;99579.81;;;25.34;50.45
33845;BME280;20145;43.118;25.694;2022-08-11T06:31:57;99598.28;;;25.47;50.67
33845;BME280;20145;43.118;25.694;2022-08-11T06:45:54;99589.53;;;24.95;52.38
33845;BME280;20145;43.118;25.694;2022-08-11T06:48:23;99588.16;;;24.37;52.97
33845;BME280;20145;43.118;25.694;2022-08-11T06:51:01;99597.91;;;24.49;52.83
33845;BME280;20145;43.118;25.694;2022-08-11T06:53:48;99589.00;;;24.37;53.00
33845;BME280;20145;43.118;25.694;2022-08-11T06:56:21;99605.88;;;24.62;52.75
33845;BME280;20145;43.118;25.694;2022-08-11T06:59:05;99602.66;;;24.44;52.60
33845;BME280;20145;43.118;25.694;2022-08-11T07:02:00;99593.38;;;24.24;53.47
33845;BME280;20145;43.118;25.694;2022-08-11T07:04:39;99580.75;;;24.29;52.57
33845;BME280;20145;43.118;25.694;2022-08-11T07:10:28;99604.50;;;24.29;53.15
33845;BME280;20145;43.118;25.694;2022-08-11T07:13:18;99602.13;;;24.12;53.32
33845;BME280;20145;43.118;25.694;2022-08-11T07:16:20;99580.81;;;24.15;53.71
33845;BME280;20145;43.118;25.694;2022-08-11T07:18:48;99589.09;;;24.36;53.40
33845;BME280;20145;43.118;25.694;2022-08-11T07:21:34;99592.50;;;24.78;53.09
33845;BME280;20145;43.118;25.694;2022-08-11T07:24:26;99598.31;;;25.21;51.82
33845;BME280;20145;43.118;25.694;2022-08-11T07:27:15;99591.09;;;25.10;51.57
33845;BME280;20145;43.118;25.694;2022-08-11T07:30:07;99601.13;;;25.44;51.76
33845;BME280;20145;43.118;25.694;2022-08-11T07:32:40;99591.31;;;25.46;50.79
33845;BME280;20145;43.118;25.694;2022-08-11T07:35:11;99609.59;;;25.49;50.65
33845;BME280;20145;43.118;25.694;2022-08-11T07:37:46;99589.72;;;25.43;51.00
33845;BME280;20145;43.118;25.694;2022-08-11T07:40:20;99598.47;;;25.56;50.55
33845;BME280;20145;43.118;25.694;2022-08-11T07:42:48;99592.59;;;25.77;50.08
33845;BME280;20145;43.118;25.694;2022-08-11T07:45:14;99586.16;;;25.81;50.34
33845;BME280;20145;43.118;25.694;2022-08-11T07:47:59;99592.97;;;25.96;49.74
33845;BME280;20145;43.118;25.694;2022-08-11T07:50:44;99596.66;;;26.07;48.79
33845;BME280;20145;43.118;25.694;2022-08-11T07:53:29;99584.63;;;26.02;49.20
33845;BME280;20145;43.118;25.694;2022-08-11T07:55:58;99593.34;;;25.29;50.45
33845;BME280;20145;43.118;25.694;2022-08-11T07:58:25;99587.84;;;24.81;51.79
33845;BME280;20145;43.118;25.694;2022-08-11T08:01:10;99591.72;;;24.63;52.56
33845;BME280;20145;43.118;25.694;2022-08-11T08:03:58;99582.00;;;24.51;53.08
33845;BME280;20145;43.118;25.694;2022-08-11T08:06:43;99590.78;;;24.77;52.72
33845;BME280;20145;43.118;25.694;2022-08-11T08:09:33;99581.50;;;24.84;51.62
33845;BME280;20145;43.118;25.694;2022-08-11T08:12:23;99585.81;;;25.10;51.23
33845;BME280;20145;43.118;25.694;2022-08-11T08:15:09;99592.38;;;25.43;51.46
33845;BME280;20145;43.118;25.694;2022-08-11T08:17:57;99585.53;;;25.77;49.93
33845;BME280;20145;43.118;25.694;2022-08-11T08:20:46;99572.56;;;26.22;50.10
33845;BME280;20145;43.118;25.694;2022-08-11T08:23:11;99580.06;;;26.64;48.47
33845;BME280;20145;43.118;25.694;2022-08-11T08:25:39;99568.16;;;26.69;46.98
33845;BME280;20145;43.118;25.694;2022-08-11T08:28:14;99576.16;;;26.92;48.14
33845;BME280;20145;43.118;25.694;2022-08-11T08:30:41;99578.81;;;27.14;47.04
33845;BME280;20145;43.118;25.694;2022-08-11T08:33:20;99590.91;;;27.30;46.51
33845;BME280;20145;43.118;25.694;2022-08-11T08:35:49;99584.81;;;26.94;45.99
33845;BME280;20145;43.118;25.694;2022-08-11T08:38:16;99570.25;;;26.18;48.67
33845;BME280;20145;43.118;25.694;2022-08-11T08:40:44;99587.00;;;26.30;48.65
33845;BME280;20145;43.118;25.694;2022-08-11T08:43:14;99581.06;;;26.15;48.35
33845;BME280;20145;43.118;25.694;2022-08-11T08:45:42;99565.03;;;25.44;50.31
33845;BME280;20145;43.118;25.694;2022-08-11T08:48:14;99584.38;;;25.69;49.76
33845;BME280;20145;43.118;25.694;2022-08-11T08:50:52;99582.47;;;25.71;50.45
33845;BME280;20145;43.118;25.694;2022-08-11T08:53:39;99581.41;;;25.86;49.02
33845;BME280;20145;43.118;25.694;2022-08-11T08:56:07;99575.16;;;26.11;49.15
33845;BME280;20145;43.118;25.694;2022-08-11T08:58:36;99565.44;;;26.47;47.74
33845;BME280;20145;43.118;25.694;2022-08-11T09:01:04;99574.00;;;26.51;47.38
33845;BME280;20145;43.118;25.694;2022-08-11T09:03:35;99561.28;;;27.25;46.06
33845;BME280;20145;43.118;25.694;2022-08-11T09:06:02;99519.13;;;27.65;45.45
33845;BME280;20145;43.118;25.694;2022-08-11T09:08:30;99567.13;;;28.49;43.93
33845;BME280;20145;43.118;25.694;2022-08-11T09:10:57;99553.63;;;28.41;43.84
33845;BME280;20145;43.118;25.694;2022-08-11T09:13:43;99556.38;;;28.39;44.26
33845;BME280;20145;43.118;25.694;2022-08-11T09:16:10;99544.94;;;28.39;43.13
33845;BME280;20145;43.118;25.694;2022-08-11T09:18:37;99553.59;;;28.20;43.81
33845;BME280;20145;43.118;25.694;2022-08-11T09:21:04;99551.66;;;28.22;43.16
33845;BME280;20145;43.118;25.694;2022-08-11T09:23:31;99544.41;;;28.24;43.39
33845;BME280;20145;43.118;25.694;2022-08-11T09:26:15;99553.47;;;28.21;43.36
33845;BME280;20145;43.118;25.694;2022-08-11T09:29:01;99537.19;;;28.47;42.91
33845;BME280;20145;43.118;25.694;2022-08-11T09:31:30;99556.34;;;28.51;42.87
33845;BME280;20145;43.118;25.694;2022-08-11T09:34:00;99540.06;;;28.23;42.24
33845;BME280;20145;43.118;25.694;2022-08-11T09:36:27;99543.53;;;28.56;42.18
33845;BME280;20145;43.118;25.694;2022-08-11T09:39:13;99535.16;;;28.39;41.24
33845;BME280;20145;43.118;25.694;2022-08-11T09:42:02;99520.88;;;27.98;42.89
33845;BME280;20145;43.118;25.694;2022-08-11T09:44:32;99532.97;;;27.91;44.00
33845;BME280;20145;43.118;25.694;2022-08-11T09:49:45;99523.00;;;27.72;43.70
33845;BME280;20145;43.118;25.694;2022-08-11T09:52:13;99507.19;;;27.82;43.26
33845;BME280;20145;43.118;25.694;2022-08-11T09:54:41;99521.31;;;27.71;42.45
33845;BME280;20145;43.118;25.694;2022-08-11T09:57:07;99511.66;;;28.14;42.93
33845;BME280;20145;43.118;25.694;2022-08-11T09:59:53;99501.97;;;28.45;41.83
33845;BME280;20145;43.118;25.694;2022-08-11T10:02:27;99497.25;;;28.79;40.29
33845;BME280;20145;43.118;25.694;2022-08-11T10:04:59;99494.19;;;29.05;39.68
33845;BME280;20145;43.118;25.694;2022-08-11T10:07:49;99505.38;;;28.36;40.05
33845;BME280;20145;43.118;25.694;2022-08-11T10:10:17;99464.84;;;28.13;41.44
33845;BME280;20145;43.118;25.694;2022-08-11T10:13:00;99498.09;;;28.38;40.58
33845;BME280;20145;43.118;25.694;2022-08-11T10:15:30;99495.97;;;28.74;40.45
33845;BME280;20145;43.118;25.694;2022-08-11T10:18:10;99513.00;;;28.71;39.63
33845;BME280;20145;43.118;25.694;2022-08-11T10:21:08;99518.88;;;28.44;40.51
33845;BME280;20145;43.118;25.694;2022-08-11T10:23:37;99510.50;;;28.69;40.23
33845;BME280;20145;43.118;25.694;2022-08-11T10:26:27;99512.63;;;29.06;39.52
33845;BME280;20145;43.118;25.694;2022-08-11T10:29:12;99512.97;;;29.23;39.53
33845;BME280;20145;43.118;25.694;2022-08-11T10:31:58;99505.72;;;29.25;39.29
33845;BME280;20145;43.118;25.694;2022-08-11T10:34:45;99509.59;;;29.11;40.49
33845;BME280;20145;43.118;25.694;2022-08-11T10:37:12;99517.31;;;28.93;40.11
33845;BME280;20145;43.118;25.694;2022-08-11T10:39:39;99508.47;;;28.20;41.11
33845;BME280;20145;43.118;25.694;2022-08-11T10:42:08;99509.75;;;27.61;42.19
33845;BME280;20145;43.118;25.694;2022-08-11T10:44:55;99489.50;;;27.71;43.00
33845;BME280;20145;43.118;25.694;2022-08-11T10:47:24;99502.19;;;28.42;42.45
33845;BME280;20145;43.118;25.694;2022-08-11T10:50:01;99458.59;;;28.65;41.14
33845;BME280;20145;43.118;25.694;2022-08-11T10:52:48;99500.97;;;28.98;40.53
33845;BME280;20145;43.118;25.694;2022-08-11T10:55:37;99499.03;;;29.40;38.75
33845;BME280;20145;43.118;25.694;2022-08-11T10:58:23;99494.34;;;29.73;38.83
33845;BME280;20145;43.118;25.694;2022-08-11T11:01:08;99478.25;;;29.65;38.89
33845;BME280;20145;43.118;25.694;2022-08-11T11:03:34;99495.75;;;29.77;38.53
33845;BME280;20145;43.118;25.694;2022-08-11T11:06:24;99497.16;;;30.00;37.80
33845;BME280;20145;43.118;25.694;2022-08-11T11:08:55;99501.00;;;29.38;38.97
33845;BME280;20145;43.118;25.694;2022-08-11T11:11:24;99486.00;;;29.27;38.78
33845;BME280;20145;43.118;25.694;2022-08-11T11:14:13;99487.91;;;29.75;38.67
33845;BME280;20145;43.118;25.694;2022-08-11T11:17:02;99472.06;;;30.03;37.90
33845;BME280;20145;43.118;25.694;2022-08-11T11:19:39;99471.81;;;29.96;37.04
33845;BME280;20145;43.118;25.694;2022-08-11T11:22:06;99487.06;;;29.85;38.36
33845;BME280;20145;43.118;25.694;2022-08-11T11:25:07;99486.16;;;29.45;37.92
33845;BME280;20145;43.118;25.694;2022-08-11T11:33:25;99482.31;;;28.15;40.94
33845;BME280;20145;43.118;25.694;2022-08-11T11:38:20;99458.91;;;29.03;39.61
33845;BME280;20145;43.118;25.694;2022-08-11T11:40:46;99482.84;;;29.63;38.64
33845;BME280;20145;43.118;25.694;2022-08-11T11:43:32;99482.72;;;30.03;37.78
33845;BME280;20145;43.118;25.694;2022-08-11T11:45:59;99477.97;;;29.97;38.08
33845;BME280;20145;43.118;25.694;2022-08-11T11:48:26;99478.38;;;30.02;37.96
33845;BME280;20145;43.118;25.694;2022-08-11T11:50:54;99490.41;;;30.06;38.12
33845;BME280;20145;43.118;25.694;2022-08-11T11:53:20;99469.94;;;29.39;38.22
33845;BME280;20145;43.118;25.694;2022-08-11T11:55:47;99479.94;;;29.85;38.03
33845;BME280;20145;43.118;25.694;2022-08-11T11:58:13;99478.66;;;30.09;37.27
33845;BME280;20145;43.118;25.694;2022-08-11T12:00:57;99484.38;;;28.75;39.28
33845;BME280;20145;43.118;25.694;2022-08-11T12:03:42;99471.09;;;28.75;39.76
33845;BME280;20145;43.118;25.694;2022-08-11T12:06:11;99467.34;;;29.18;39.20
33845;BME280;20145;43.118;25.694;2022-08-11T12:08:41;99470.63;;;29.50;39.17
33845;BME280;20145;43.118;25.694;2022-08-11T12:11:09;99457.94;;;29.64;37.77
33845;BME280;20145;43.118;25.694;2022-08-11T12:13:56;99473.91;;;29.73;37.78
33845;BME280;20145;43.118;25.694;2022-08-11T12:16:23;99467.63;;;29.74;37.44
33845;BME280;20145;43.118;25.694;2022-08-11T12:18:52;99476.81;;;29.61;37.92
33845;BME280;20145;43.118;25.694;2022-08-11T12:21:18;99481.16;;;29.62;38.60
33845;BME280;20145;43.118;25.694;2022-08-11T12:23:46;99465.13;;;29.23;39.04
33845;BME280;20145;43.118;25.694;2022-08-11T12:26:32;99462.44;;;29.83;37.27
33845;BME280;20145;43.118;25.694;2022-08-11T12:29:13;99470.41;;;29.83;37.50
33845;BME280;20145;43.118;25.694;2022-08-11T12:31:40;99471.38;;;29.82;37.52
33845;BME280;20145;43.118;25.694;2022-08-11T12:34:11;99470.13;;;29.76;39.01
33845;BME280;20145;43.118;25.694;2022-08-11T12:36:55;99468.31;;;29.76;37.71
33845;BME280;20145;43.118;25.694;2022-08-11T12:39:24;99472.19;;;29.53;37.98
33845;BME280;20145;43.118;25.694;2022-08-11T12:42:12;99470.63;;;29.41;39.00
33845;BME280;20145;43.118;25.694;2022-08-11T12:44:58;99457.34;;;29.41;38.68
33845;BME280;20145;43.118;25.694;2022-08-11T12:47:48;99458.72;;;28.95;39.11
33845;BME280;20145;43.118;25.694;2022-08-11T12:50:34;99450.22;;;29.01;39.04
33845;BME280;20145;43.118;25.694;2022-08-11T12:53:25;99443.81;;;28.73;39.40
33845;BME280;20145;43.118;25.694;2022-08-11T12:55:56;99448.44;;;28.71;39.14
33845;BME280;20145;43.118;25.694;2022-08-11T12:58:43;99448.03;;;28.75;39.37
33845;BME280;20145;43.118;25.694;2022-08-11T13:01:11;99443.53;;;28.66;39.85
33845;BME280;20145;43.118;25.694;2022-08-11T13:03:55;99435.84;;;29.03;38.97
33845;BME280;20145;43.118;25.694;2022-08-11T13:06:40;99428.84;;;29.02;38.29
33845;BME280;20145;43.118;25.694;2022-08-11T13:09:08;99440.41;;;28.91;38.51
33845;BME280;20145;43.118;25.694;2022-08-11T13:11:36;99423.91;;;28.88;39.38
33845;BME280;20145;43.118;25.694;2022-08-11T13:14:20;99445.56;;;29.24;38.45
33845;BME280;20145;43.118;25.694;2022-08-11T13:16:47;99437.19;;;29.38;38.37
33845;BME280;20145;43.118;25.694;2022-08-11T13:19:32;99443.03;;;29.32;38.41
33845;BME280;20145;43.118;25.694;2022-08-11T13:21:58;99448.81;;;29.47;37.88
33845;BME280;20145;43.118;25.694;2022-08-11T13:24:27;99440.13;;;29.35;37.07
33845;BME280;20145;43.118;25.694;2022-08-11T13:26:53;99432.97;;;29.45;38.11
33845;BME280;20145;43.118;25.694;2022-08-11T13:29:24;99438.50;;;29.63;38.34
33845;BME280;20145;43.118;25.694;2022-08-11T13:31:53;99427.41;;;29.87;36.45
33845;BME280;20145;43.118;25.694;2022-08-11T13:34:22;99437.75;;;29.51;37.26
33845;BME280;20145;43.118;25.694;2022-08-11T13:36:54;99430.19;;;30.05;36.60
33845;BME280;20145;43.118;25.694;2022-08-11T13:39:22;99427.25;;;30.08;36.19
33845;BME280;20145;43.118;25.694;2022-08-11T13:41:49;99415.34;;;29.44;37.05
33845;BME280;20145;43.118;25.694;2022-08-11T13:44:16;99407.63;;;29.31;37.21
33845;BME280;20145;43.118;25.694;2022-08-11T13:46:42;99415.63;;;29.41;36.93
33845;BME280;20145;43.118;25.694;2022-08-11T13:49:09;99418.75;;;29.66;37.01
33845;BME280;20145;43.118;25.694;2022-08-11T13:51:36;99422.94;;;29.88;36.47
33845;BME280;20145;43.118;25.694;2022-08-11T13:54:11;99414.38;;;29.45;37.00
33845;BME280;20145;43.118;25.694;2022-08-11T13:56:44;99428.19;;;29.20;37.31
33845;BME280;20145;43.118;25.694;2022-08-11T13:59:12;99425.69;;;29.38;37.04
33845;BME280;20145;43.118;25.694;2022-08-11T14:01:41;99408.06;;;29.27;37.67
33845;BME280;20145;43.118;25.694;2022-08-11T14:04:10;99417.59;;;29.58;36.45
33845;BME280;20145;43.118;25.694;2022-08-11T14:06:45;99416.34;;;29.53;36.06
33845;BME280;20145;43.118;25.694;2022-08-11T14:09:15;99390.72;;;29.62;36.49
33845;BME280;20145;43.118;25.694;2022-08-11T14:11:46;99397.72;;;30.01;36.28
33845;BME280;20145;43.118;25.694;2022-08-11T14:14:32;99408.41;;;30.49;35.36
33845;BME280;20145;43.118;25.694;2022-08-11T14:17:04;99401.16;;;30.31;36.08
33845;BME280;20145;43.118;25.694;2022-08-11T14:19:39;99409.78;;;29.96;37.19
33845;BME280;20145;43.118;25.694;2022-08-11T14:22:05;99407.41;;;28.94;36.34
33845;BME280;20145;43.118;25.694;2022-08-11T14:24:39;99413.06;;;28.70;37.80
33845;BME280;20145;43.118;25.694;2022-08-11T14:27:07;99413.06;;;28.70;37.88
33845;BME280;20145;43.118;25.694;2022-08-11T14:29:34;99402.50;;;28.89;37.52
33845;BME280;20145;43.118;25.694;2022-08-11T14:32:06;99403.34;;;28.90;37.14
33845;BME280;20145;43.118;25.694;2022-08-11T14:34:34;99398.41;;;28.76;37.40
33845;BME280;20145;43.118;25.694;2022-08-11T14:37:03;99403.75;;;28.85;37.89
33845;BME280;20145;43.118;25.694;2022-08-11T14:39:35;99398.72;;;28.82;37.83
33845;BME280;20145;43.118;25.694;2022-08-11T14:42:05;99407.03;;;28.68;37.45
33845;BME280;20145;43.118;25.694;2022-08-11T14:44:53;99398.06;;;28.59;38.69
33845;BME280;20145;43.118;25.694;2022-08-11T14:47:44;99401.72;;;28.58;38.38
33845;BME280;20145;43.118;25.694;2022-08-11T14:50:13;99406.19;;;28.58;38.76
33845;BME280;20145;43.118;25.694;2022-08-11T14:52:45;99396.84;;;28.63;38.08
33845;BME280;20145;43.118;25.694;2022-08-11T14:55:19;99388.00;;;28.53;37.36
33845;BME280;20145;43.118;25.694;2022-08-11T14:58:04;99391.25;;;28.36;38.12
33845;BME280;20145;43.118;25.694;2022-08-11T15:00:46;99373.44;;;28.27;38.67
33845;BME280;20145;43.118;25.694;2022-08-11T15:03:15;99373.88;;;28.32;38.76
33845;BME280;20145;43.118;25.694;2022-08-11T15:05:58;99380.00;;;28.43;38.76
33845;BME280;20145;43.118;25.694;2022-08-11T15:08:28;99379.59;;;28.27;38.67
33845;BME280;20145;43.118;25.694;2022-08-11T15:11:14;99383.66;;;28.31;39.09
33845;BME280;20145;43.118;25.694;2022-08-11T15:14:00;99376.97;;;28.27;39.32
33845;BME280;20145;43.118;25.694;2022-08-11T15:17:02;99379.78;;;28.35;40.72
33845;BME280;20145;43.118;25.694;2022-08-11T15:19:33;99362.59;;;28.30;39.68
33845;BME280;20145;43.118;25.694;2022-08-11T15:22:00;99367.56;;;28.23;40.28
33845;BME280;20145;43.118;25.694;2022-08-11T15:24:46;99358.00;;;28.11;39.61
33845;BME280;20145;43.118;25.694;2022-08-11T15:27:20;99365.44;;;28.17;39.65
33845;BME280;20145;43.118;25.694;2022-08-11T15:30:07;99349.81;;;28.23;39.51
33845;BME280;20145;43.118;25.694;2022-08-11T15:32:53;99359.59;;;28.23;39.62
33845;BME280;20145;43.118;25.694;2022-08-11T15:35:39;99369.94;;;28.26;40.02
33845;BME280;20145;43.118;25.694;2022-08-11T15:38:40;99356.03;;;28.13;38.73
33845;BME280;20145;43.118;25.694;2022-08-11T15:41:14;99362.59;;;28.09;39.33
33845;BME280;20145;43.118;25.694;2022-08-11T15:44:02;99368.72;;;27.99;39.49
33845;BME280;20145;43.118;25.694;2022-08-11T15:46:50;99372.84;;;27.92;39.70
33845;BME280;20145;43.118;25.694;2022-08-11T15:49:30;99357.22;;;27.78;39.74
33845;BME280;20145;43.118;25.694;2022-08-11T15:52:17;99359.22;;;27.65;39.54
33845;BME280;20145;43.118;25.694;2022-08-11T15:54:45;99362.06;;;27.73;40.64
33845;BME280;20145;43.118;25.694;2022-08-11T15:57:13;99339.69;;;27.66;40.10
33845;BME280;20145;43.118;25.694;2022-08-11T16:00:03;99345.59;;;27.69;40.48
33845;BME280;20145;43.118;25.694;2022-08-11T16:02:49;99343.47;;;27.63;39.64
33845;BME280;20145;43.118;25.694;2022-08-11T16:05:21;99373.91;;;27.69;39.74
33845;BME280;20145;43.118;25.694;2022-08-11T16:07:48;99370.03;;;27.73;39.44
33845;BME280;20145;43.118;25.694;2022-08-11T16:10:16;99362.06;;;27.73;39.45
33845;BME280;20145;43.118;25.694;2022-08-11T16:13:05;99367.50;;;27.83;39.39
33845;BME280;20145;43.118;25.694;2022-08-11T16:15:36;99353.53;;;27.69;39.96
33845;BME280;20145;43.118;25.694;2022-08-11T16:18:24;99360.78;;;27.67;40.25
33845;BME280;20145;43.118;25.694;2022-08-11T16:21:09;99359.38;;;27.63;40.13
33845;BME280;20145;43.118;25.694;2022-08-11T16:23:36;99364.91;;;27.60;40.31
33845;BME280;20145;43.118;25.694;2022-08-11T16:26:05;99364.06;;;27.59;40.27
33845;BME280;20145;43.118;25.694;2022-08-11T16:28:33;99370.91;;;27.62;40.42
33845;BME280;20145;43.118;25.694;2022-08-11T16:31:01;99366.03;;;27.57;40.68
33845;BME280;20145;43.118;25.694;2022-08-11T16:33:29;99352.63;;;27.38;41.20
33845;BME280;20145;43.118;25.694;2022-08-11T16:35:55;99375.44;;;27.50;41.07
33845;BME280;20145;43.118;25.694;2022-08-11T16:38:41;99373.88;;;27.48;40.86
33845;BME280;20145;43.118;25.694;2022-08-11T16:41:13;99381.84;;;27.48;41.07
33845;BME280;20145;43.118;25.694;2022-08-11T16:43:44;99317.41;;;27.04;41.84
33845;BME280;20145;43.118;25.694;2022-08-11T16:46:29;99374.34;;;27.21;42.14
33845;BME280;20145;43.118;25.694;2022-08-11T16:51:52;99368.94;;;27.11;43.64
33845;BME280;20145;43.118;25.694;2022-08-11T16:54:18;99384.84;;;27.11;42.43
33845;BME280;20145;43.118;25.694;2022-08-11T16:56:50;99379.06;;;27.06;41.66
33845;BME280;20145;43.118;25.694;2022-08-11T16:59:29;99380.66;;;26.97;42.19
33845;BME280;20145;43.118;25.694;2022-08-11T17:02:06;99364.66;;;26.87;42.73
33845;BME280;20145;43.118;25.694;2022-08-11T17:04:52;99372.09;;;26.82;43.05
33845;BME280;20145;43.118;25.694;2022-08-11T17:07:40;99364.19;;;26.71;43.72
33845;BME280;20145;43.118;25.694;2022-08-11T17:10:40;99370.81;;;26.65;44.61
33845;BME280;20145;43.118;25.694;2022-08-11T17:13:51;99381.78;;;26.61;46.05
33845;BME280;20145;43.118;25.694;2022-08-11T17:16:24;99372.25;;;26.47;46.55
33845;BME280;20145;43.118;25.694;2022-08-11T17:19:09;99386.66;;;26.43;48.00
33845;BME280;20145;43.118;25.694;2022-08-11T17:21:39;99386.66;;;26.32;47.60
33845;BME280;20145;43.118;25.694;2022-08-11T17:24:26;99387.13;;;26.14;49.12
33845;BME280;20145;43.118;25.694;2022-08-11T17:26:54;99385.41;;;26.02;49.00